sensor_id;sensor_type;location;lat;lon;timestamp;temperature;humidity
76577;DHT22;65441;44.748;37.600;2023-09-07T00:00:21;21.25;60.58
76577;DHT22;65441;44.748;37.600;2023-09-07T00:02:50;21.22;60.29
76577;DHT22;65441;44.748;37.600;2023-09-07T00:05:18;21.20;60.64
76577;DHT22;65441;44.748;37.600;2023-09-07T00:07:46;21.15;62.10
76577;DHT22;65441;44.748;37.600;2023-09-07T00:10:16;21.06;61.95
76577;DHT22;65441;44.748;37.600;2023-09-07T00:12:44;21.05;61.05
76577;DHT22;65441;44.748;37.600;2023-09-07T00:15:12;21.07;63.38
76577;DHT22;65441;44.748;37.600;2023-09-07T00:17:40;21.00;61.38
76577;DHT22;65441;44.748;37.600;2023-09-07T00:20:09;20.99;61.89
76577;DHT22;65441;44.748;37.600;2023-09-07T00:22:38;20.90;61.94
76577;DHT22;65441;44.748;37.600;2023-09-07T00:25:07;20.92;62.37
76577;DHT22;65441;44.748;37.600;2023-09-07T00:27:37;20.89;61.81
76577;DHT22;65441;44.748;37.600;2023-09-07T00:30:06;20.88;62.53
76577;DHT22;65441;44.748;37.600;2023-09-07T00:32:36;20.91;61.26
76577;DHT22;65441;44.748;37.600;2023-09-07T00:35:05;20.85;61.47
76577;DHT22;65441;44.748;37.600;2023-09-07T00:37:33;20.84;61.89
76577;DHT22;65441;44.748;37.600;2023-09-07T00:40:02;20.71;61.81
76577;DHT22;65441;44.748;37.600;2023-09-07T00:42:31;20.74;61.56
76577;DHT22;65441;44.748;37.600;2023-09-07T00:45:01;20.74;62.17
76577;DHT22;65441;44.748;37.600;2023-09-07T00:47:30;20.75;60.81
76577;DHT22;65441;44.748;37.600;2023-09-07T00:50:00;20.72;60.69
76577;DHT22;65441;44.748;37.600;2023-09-07T00:52:28;20.84;61.59
76577;DHT22;65441;44.748;37.600;2023-09-07T00:54:59;20.74;60.46
76577;DHT22;65441;44.748;37.600;2023-09-07T00:57:30;20.76;60.88
76577;DHT22;65441;44.748;37.600;2023-09-07T01:00:00;20.75;60.74
76577;DHT22;65441;44.748;37.600;2023-09-07T01:02:28;20.89;64.92
76577;DHT22;65441;44.748;37.600;2023-09-07T01:04:58;20.80;60.81
76577;DHT22;65441;44.748;37.600;2023-09-07T01:07:32;20.85;62.26
76577;DHT22;65441;44.748;37.600;2023-09-07T01:10:04;20.79;61.21
76577;DHT22;65441;44.748;37.600;2023-09-07T01:12:35;20.80;61.81
76577;DHT22;65441;44.748;37.600;2023-09-07T01:15:06;20.94;64.64
76577;DHT22;65441;44.748;37.600;2023-09-07T01:17:35;20.92;60.51
76577;DHT22;65441;44.748;37.600;2023-09-07T01:20:05;20.98;59.87
76577;DHT22;65441;44.748;37.600;2023-09-07T01:22:38;20.98;59.51
76577;DHT22;65441;44.748;37.600;2023-09-07T01:25:08;20.94;60.29
76577;DHT22;65441;44.748;37.600;2023-09-07T01:27:36;20.96;62.58
76577;DHT22;65441;44.748;37.600;2023-09-07T01:30:06;21.18;64.36
76577;DHT22;65441;44.748;37.600;2023-09-07T01:32:34;21.22;59.38
76577;DHT22;65441;44.748;37.600;2023-09-07T01:35:05;21.21;59.68
76577;DHT22;65441;44.748;37.600;2023-09-07T01:37:34;21.11;59.02
76577;DHT22;65441;44.748;37.600;2023-09-07T01:40:06;21.04;57.86
76577;DHT22;65441;44.748;37.600;2023-09-07T01:42:35;21.16;63.89
76577;DHT22;65441;44.748;37.600;2023-09-07T01:45:05;21.08;58.37
76577;DHT22;65441;44.748;37.600;2023-09-07T01:47:33;20.99;56.59
76577;DHT22;65441;44.748;37.600;2023-09-07T01:50:01;20.95;57.29
76577;DHT22;65441;44.748;37.600;2023-09-07T01:52:30;20.93;56.77
76577;DHT22;65441;44.748;37.600;2023-09-07T01:54:58;20.96;56.98
76577;DHT22;65441;44.748;37.600;2023-09-07T01:57:27;20.93;56.92
76577;DHT22;65441;44.748;37.600;2023-09-07T01:59:56;20.88;60.09
76577;DHT22;65441;44.748;37.600;2023-09-07T02:02:24;20.79;59.38
76577;DHT22;65441;44.748;37.600;2023-09-07T02:04:52;20.72;59.25
76577;DHT22;65441;44.748;37.600;2023-09-07T02:07:20;20.58;62.78
76577;DHT22;65441;44.748;37.600;2023-09-07T02:09:48;20.60;64.14
76577;DHT22;65441;44.748;37.600;2023-09-07T02:12:16;20.61;62.44
76577;DHT22;65441;44.748;37.600;2023-09-07T02:14:46;20.80;59.76
76577;DHT22;65441;44.748;37.600;2023-09-07T02:17:14;20.77;58.28
76577;DHT22;65441;44.748;37.600;2023-09-07T02:19:45;20.77;62.41
76577;DHT22;65441;44.748;37.600;2023-09-07T02:22:13;20.93;64.21
76577;DHT22;65441;44.748;37.600;2023-09-07T02:24:41;21.02;62.95
76577;DHT22;65441;44.748;37.600;2023-09-07T02:27:10;20.93;60.41
76577;DHT22;65441;44.748;37.600;2023-09-07T02:29:38;20.86;62.82
76577;DHT22;65441;44.748;37.600;2023-09-07T02:32:12;20.68;60.15
76577;DHT22;65441;44.748;37.600;2023-09-07T02:34:40;20.74;63.10
76577;DHT22;65441;44.748;37.600;2023-09-07T02:37:09;20.73;65.45
76577;DHT22;65441;44.748;37.600;2023-09-07T02:39:38;20.63;63.15
76577;DHT22;65441;44.748;37.600;2023-09-07T02:42:06;20.44;62.67
76577;DHT22;65441;44.748;37.600;2023-09-07T02:44:34;20.27;60.92
76577;DHT22;65441;44.748;37.600;2023-09-07T02:47:04;20.17;63.98
76577;DHT22;65441;44.748;37.600;2023-09-07T02:49:34;19.76;62.47
76577;DHT22;65441;44.748;37.600;2023-09-07T02:52:02;19.66;62.94
76577;DHT22;65441;44.748;37.600;2023-09-07T02:54:31;19.83;65.98
76577;DHT22;65441;44.748;37.600;2023-09-07T02:56:59;20.02;64.95
76577;DHT22;65441;44.748;37.600;2023-09-07T02:59:27;20.01;61.97
76577;DHT22;65441;44.748;37.600;2023-09-07T03:01:57;20.09;60.03
76577;DHT22;65441;44.748;37.600;2023-09-07T03:04:25;20.00;60.85
76577;DHT22;65441;44.748;37.600;2023-09-07T03:06:55;20.06;59.91
76577;DHT22;65441;44.748;37.600;2023-09-07T03:09:23;20.03;60.24
76577;DHT22;65441;44.748;37.600;2023-09-07T03:11:52;20.16;59.62
76577;DHT22;65441;44.748;37.600;2023-09-07T03:14:20;20.10;60.34
76577;DHT22;65441;44.748;37.600;2023-09-07T03:16:48;20.03;59.80
76577;DHT22;65441;44.748;37.600;2023-09-07T03:19:18;20.05;59.29
76577;DHT22;65441;44.748;37.600;2023-09-07T03:21:46;20.13;59.67
76577;DHT22;65441;44.748;37.600;2023-09-07T03:24:16;20.17;60.86
76577;DHT22;65441;44.748;37.600;2023-09-07T03:26:44;20.24;60.71
76577;DHT22;65441;44.748;37.600;2023-09-07T03:29:12;20.16;63.60
76577;DHT22;65441;44.748;37.600;2023-09-07T03:31:40;20.15;63.30
76577;DHT22;65441;44.748;37.600;2023-09-07T03:34:08;20.19;62.53
76577;DHT22;65441;44.748;37.600;2023-09-07T03:36:36;20.17;60.85
76577;DHT22;65441;44.748;37.600;2023-09-07T03:39:04;20.55;64.60
76577;DHT22;65441;44.748;37.600;2023-09-07T03:41:36;21.48;56.97
76577;DHT22;65441;44.748;37.600;2023-09-07T03:44:05;22.17;55.62
76577;DHT22;65441;44.748;37.600;2023-09-07T03:46:34;22.91;53.22
76577;DHT22;65441;44.748;37.600;2023-09-07T03:49:02;23.42;54.78
76577;DHT22;65441;44.748;37.600;2023-09-07T03:51:30;23.90;50.82
76577;DHT22;65441;44.748;37.600;2023-09-07T03:53:58;24.24;50.34
76577;DHT22;65441;44.748;37.600;2023-09-07T03:56:27;24.59;49.93
76577;DHT22;65441;44.748;37.600;2023-09-07T03:58:56;24.66;48.95
76577;DHT22;65441;44.748;37.600;2023-09-07T04:01:24;25.02;47.70
76577;DHT22;65441;44.748;37.600;2023-09-07T04:03:52;25.06;47.73
76577;DHT22;65441;44.748;37.600;2023-09-07T04:06:20;25.25;48.62
76577;DHT22;65441;44.748;37.600;2023-09-07T04:08:50;25.69;48.66
76577;DHT22;65441;44.748;37.600;2023-09-07T04:11:18;25.94;46.71
76577;DHT22;65441;44.748;37.600;2023-09-07T04:13:49;25.96;47.20
76577;DHT22;65441;44.748;37.600;2023-09-07T04:16:19;26.13;44.88
76577;DHT22;65441;44.748;37.600;2023-09-07T04:18:47;26.36;45.70
76577;DHT22;65441;44.748;37.600;2023-09-07T04:21:16;26.52;44.81
76577;DHT22;65441;44.748;37.600;2023-09-07T04:23:44;26.86;43.45
76577;DHT22;65441;44.748;37.600;2023-09-07T04:26:13;27.09;45.00
76577;DHT22;65441;44.748;37.600;2023-09-07T04:28:42;27.05;44.54
76577;DHT22;65441;44.748;37.600;2023-09-07T04:31:11;27.07;42.82
76577;DHT22;65441;44.748;37.600;2023-09-07T04:33:41;27.04;43.64
76577;DHT22;65441;44.748;37.600;2023-09-07T04:36:10;26.85;43.28
76577;DHT22;65441;44.748;37.600;2023-09-07T04:38:43;26.94;43.62
76577;DHT22;65441;44.748;37.600;2023-09-07T04:41:13;26.85;44.09
76577;DHT22;65441;44.748;37.600;2023-09-07T04:43:43;27.30;44.22
76577;DHT22;65441;44.748;37.600;2023-09-07T04:46:12;27.44;44.60
76577;DHT22;65441;44.748;37.600;2023-09-07T04:48:43;27.50;43.84
76577;DHT22;65441;44.748;37.600;2023-09-07T04:51:11;27.61;42.23
76577;DHT22;65441;44.748;37.600;2023-09-07T04:53:40;27.65;42.47
76577;DHT22;65441;44.748;37.600;2023-09-07T04:56:11;27.36;43.85
76577;DHT22;65441;44.748;37.600;2023-09-07T04:58:40;26.71;45.60
76577;DHT22;65441;44.748;37.600;2023-09-07T05:01:09;26.75;44.95
76577;DHT22;65441;44.748;37.600;2023-09-07T05:03:38;26.56;46.11
76577;DHT22;65441;44.748;37.600;2023-09-07T05:06:11;26.58;44.14
76577;DHT22;65441;44.748;37.600;2023-09-07T05:08:40;26.94;44.65
76577;DHT22;65441;44.748;37.600;2023-09-07T05:11:09;27.17;42.81
76577;DHT22;65441;44.748;37.600;2023-09-07T05:13:37;27.31;43.16
76577;DHT22;65441;44.748;37.600;2023-09-07T05:16:06;27.52;42.79
76577;DHT22;65441;44.748;37.600;2023-09-07T05:18:36;27.45;42.87
76577;DHT22;65441;44.748;37.600;2023-09-07T05:21:13;27.84;42.56
76577;DHT22;65441;44.748;37.600;2023-09-07T05:23:44;27.96;42.03
76577;DHT22;65441;44.748;37.600;2023-09-07T05:26:13;28.13;41.42
76577;DHT22;65441;44.748;37.600;2023-09-07T05:28:41;28.19;41.13
76577;DHT22;65441;44.748;37.600;2023-09-07T05:31:10;27.97;40.90
76577;DHT22;65441;44.748;37.600;2023-09-07T05:33:39;28.04;40.81
76577;DHT22;65441;44.748;37.600;2023-09-07T05:36:13;28.18;41.58
76577;DHT22;65441;44.748;37.600;2023-09-07T05:38:42;28.52;41.06
76577;DHT22;65441;44.748;37.600;2023-09-07T05:41:18;28.49;39.14
76577;DHT22;65441;44.748;37.600;2023-09-07T05:43:50;28.46;38.06
76577;DHT22;65441;44.748;37.600;2023-09-07T05:46:18;28.78;38.35
76577;DHT22;65441;44.748;37.600;2023-09-07T05:48:47;28.99;38.46
76577;DHT22;65441;44.748;37.600;2023-09-07T05:51:18;28.93;37.74
76577;DHT22;65441;44.748;37.600;2023-09-07T05:53:47;28.95;39.26
76577;DHT22;65441;44.748;37.600;2023-09-07T05:56:16;29.12;37.78
76577;DHT22;65441;44.748;37.600;2023-09-07T05:58:44;29.11;37.07
76577;DHT22;65441;44.748;37.600;2023-09-07T06:01:13;29.46;36.40
76577;DHT22;65441;44.748;37.600;2023-09-07T06:03:41;29.52;36.21
76577;DHT22;65441;44.748;37.600;2023-09-07T06:06:13;29.78;35.70
76577;DHT22;65441;44.748;37.600;2023-09-07T06:08:42;29.92;34.26
76577;DHT22;65441;44.748;37.600;2023-09-07T06:11:11;30.05;34.86
76577;DHT22;65441;44.748;37.600;2023-09-07T06:13:39;30.05;34.74
76577;DHT22;65441;44.748;37.600;2023-09-07T06:16:08;30.42;34.31
76577;DHT22;65441;44.748;37.600;2023-09-07T06:18:37;30.38;33.09
76577;DHT22;65441;44.748;37.600;2023-09-07T06:21:05;30.38;32.04
76577;DHT22;65441;44.748;37.600;2023-09-07T06:23:33;30.67;32.50
76577;DHT22;65441;44.748;37.600;2023-09-07T06:26:06;31.15;32.86
76577;DHT22;65441;44.748;37.600;2023-09-07T06:28:36;31.38;31.67
76577;DHT22;65441;44.748;37.600;2023-09-07T06:31:05;31.16;31.30
76577;DHT22;65441;44.748;37.600;2023-09-07T06:33:36;30.71;30.49
76577;DHT22;65441;44.748;37.600;2023-09-07T06:36:04;30.86;30.53
76577;DHT22;65441;44.748;37.600;2023-09-07T06:38:36;30.98;29.82
76577;DHT22;65441;44.748;37.600;2023-09-07T06:41:08;31.24;29.25
76577;DHT22;65441;44.748;37.600;2023-09-07T06:43:44;31.50;29.35
76577;DHT22;65441;44.748;37.600;2023-09-07T06:46:14;31.59;28.48
76577;DHT22;65441;44.748;37.600;2023-09-07T06:48:44;31.38;28.26
76577;DHT22;65441;44.748;37.600;2023-09-07T06:51:12;31.49;28.19
76577;DHT22;65441;44.748;37.600;2023-09-07T06:53:43;31.30;28.97
76577;DHT22;65441;44.748;37.600;2023-09-07T06:56:12;31.25;29.03
76577;DHT22;65441;44.748;37.600;2023-09-07T06:58:50;31.40;29.32
76577;DHT22;65441;44.748;37.600;2023-09-07T07:01:19;31.40;27.95
76577;DHT22;65441;44.748;37.600;2023-09-07T07:03:50;31.79;27.37
76577;DHT22;65441;44.748;37.600;2023-09-07T07:06:19;31.87;26.80
76577;DHT22;65441;44.748;37.600;2023-09-07T07:08:47;32.16;26.06
76577;DHT22;65441;44.748;37.600;2023-09-07T07:11:21;31.99;25.30
76577;DHT22;65441;44.748;37.600;2023-09-07T07:13:50;32.03;26.63
76577;DHT22;65441;44.748;37.600;2023-09-07T07:16:23;32.32;25.71
76577;DHT22;65441;44.748;37.600;2023-09-07T07:18:54;31.89;27.14
76577;DHT22;65441;44.748;37.600;2023-09-07T07:21:26;32.26;27.18
76577;DHT22;65441;44.748;37.600;2023-09-07T07:23:59;32.47;25.72
76577;DHT22;65441;44.748;37.600;2023-09-07T07:26:32;32.54;25.78
76577;DHT22;65441;44.748;37.600;2023-09-07T07:29:05;32.29;25.51
76577;DHT22;65441;44.748;37.600;2023-09-07T07:31:40;32.41;26.65
76577;DHT22;65441;44.748;37.600;2023-09-07T07:34:11;32.28;25.16
76577;DHT22;65441;44.748;37.600;2023-09-07T07:36:44;32.18;25.97
76577;DHT22;65441;44.748;37.600;2023-09-07T07:39:15;32.35;26.27
76577;DHT22;65441;44.748;37.600;2023-09-07T07:41:46;32.47;25.99
76577;DHT22;65441;44.748;37.600;2023-09-07T07:44:17;32.66;24.56
76577;DHT22;65441;44.748;37.600;2023-09-07T07:46:53;32.60;25.30
76577;DHT22;65441;44.748;37.600;2023-09-07T07:49:26;32.60;25.49
76577;DHT22;65441;44.748;37.600;2023-09-07T07:52:00;32.44;25.21
76577;DHT22;65441;44.748;37.600;2023-09-07T07:54:35;32.84;23.91
76577;DHT22;65441;44.748;37.600;2023-09-07T07:57:09;32.97;24.27
76577;DHT22;65441;44.748;37.600;2023-09-07T07:59:42;33.22;24.30
76577;DHT22;65441;44.748;37.600;2023-09-07T08:02:16;33.00;25.09
76577;DHT22;65441;44.748;37.600;2023-09-07T08:04:56;33.08;24.11
76577;DHT22;65441;44.748;37.600;2023-09-07T08:07:29;33.34;24.04
76577;DHT22;65441;44.748;37.600;2023-09-07T08:10:02;33.07;24.01
76577;DHT22;65441;44.748;37.600;2023-09-07T08:12:36;33.36;22.87
76577;DHT22;65441;44.748;37.600;2023-09-07T08:15:10;33.38;23.14
76577;DHT22;65441;44.748;37.600;2023-09-07T08:17:44;33.40;22.03
76577;DHT22;65441;44.748;37.600;2023-09-07T08:20:19;33.51;22.18
76577;DHT22;65441;44.748;37.600;2023-09-07T08:22:55;33.05;21.98
76577;DHT22;65441;44.748;37.600;2023-09-07T08:25:25;32.62;23.34
76577;DHT22;65441;44.748;37.600;2023-09-07T08:28:01;32.56;24.29
76577;DHT22;65441;44.748;37.600;2023-09-07T08:30:36;32.84;22.86
76577;DHT22;65441;44.748;37.600;2023-09-07T08:33:09;32.82;22.74
76577;DHT22;65441;44.748;37.600;2023-09-07T08:35:41;33.25;23.07
76577;DHT22;65441;44.748;37.600;2023-09-07T08:38:14;33.35;22.18
76577;DHT22;65441;44.748;37.600;2023-09-07T08:40:49;33.49;21.66
76577;DHT22;65441;44.748;37.600;2023-09-07T08:43:23;33.43;21.89
76577;DHT22;65441;44.748;37.600;2023-09-07T08:45:58;33.38;22.11
76577;DHT22;65441;44.748;37.600;2023-09-07T08:48:31;33.40;22.32
76577;DHT22;65441;44.748;37.600;2023-09-07T08:51:00;33.51;22.11
76577;DHT22;65441;44.748;37.600;2023-09-07T08:53:34;33.41;21.79
76577;DHT22;65441;44.748;37.600;2023-09-07T08:56:06;33.47;22.18
76577;DHT22;65441;44.748;37.600;2023-09-07T08:58:41;33.29;22.39
76577;DHT22;65441;44.748;37.600;2023-09-07T09:01:14;33.47;22.53
76577;DHT22;65441;44.748;37.600;2023-09-07T09:03:46;33.43;22.80
76577;DHT22;65441;44.748;37.600;2023-09-07T09:06:18;33.41;22.53
76577;DHT22;65441;44.748;37.600;2023-09-07T09:08:54;32.97;23.21
76577;DHT22;65441;44.748;37.600;2023-09-07T09:11:26;33.16;22.81
76577;DHT22;65441;44.748;37.600;2023-09-07T09:14:00;32.84;23.37
76577;DHT22;65441;44.748;37.600;2023-09-07T09:16:30;33.06;23.61
76577;DHT22;65441;44.748;37.600;2023-09-07T09:19:05;33.30;23.09
76577;DHT22;65441;44.748;37.600;2023-09-07T09:21:39;33.23;22.58
76577;DHT22;65441;44.748;37.600;2023-09-07T09:24:11;33.29;23.53
76577;DHT22;65441;44.748;37.600;2023-09-07T09:26:44;33.15;23.92
76577;DHT22;65441;44.748;37.600;2023-09-07T09:29:16;33.56;22.99
76577;DHT22;65441;44.748;37.600;2023-09-07T09:31:50;33.23;22.53
76577;DHT22;65441;44.748;37.600;2023-09-07T09:34:19;31.98;24.93
76577;DHT22;65441;44.748;37.600;2023-09-07T09:36:51;32.69;24.70
76577;DHT22;65441;44.748;37.600;2023-09-07T09:39:25;32.77;24.43
76577;DHT22;65441;44.748;37.600;2023-09-07T09:41:56;33.03;23.15
76577;DHT22;65441;44.748;37.600;2023-09-07T09:44:31;32.89;22.68
76577;DHT22;65441;44.748;37.600;2023-09-07T09:47:07;33.42;22.98
76577;DHT22;65441;44.748;37.600;2023-09-07T09:49:43;33.93;21.66
76577;DHT22;65441;44.748;37.600;2023-09-07T09:52:14;34.19;21.11
76577;DHT22;65441;44.748;37.600;2023-09-07T09:54:50;33.11;22.15
76577;DHT22;65441;44.748;37.600;2023-09-07T09:57:27;33.38;21.47
76577;DHT22;65441;44.748;37.600;2023-09-07T09:59:59;33.30;23.46
76577;DHT22;65441;44.748;37.600;2023-09-07T10:02:44;33.50;24.46
76577;DHT22;65441;44.748;37.600;2023-09-07T10:05:15;33.77;23.53
76577;DHT22;65441;44.748;37.600;2023-09-07T10:07:50;33.88;24.33
76577;DHT22;65441;44.748;37.600;2023-09-07T10:10:22;33.62;22.56
76577;DHT22;65441;44.748;37.600;2023-09-07T10:12:52;33.53;23.04
76577;DHT22;65441;44.748;37.600;2023-09-07T10:15:28;33.66;22.75
76577;DHT22;65441;44.748;37.600;2023-09-07T10:18:13;33.67;22.47
76577;DHT22;65441;44.748;37.600;2023-09-07T10:20:53;33.78;22.69
76577;DHT22;65441;44.748;37.600;2023-09-07T10:23:40;33.61;21.76
76577;DHT22;65441;44.748;37.600;2023-09-07T10:26:18;33.55;22.72
76577;DHT22;65441;44.748;37.600;2023-09-07T10:29:00;33.38;23.05
76577;DHT22;65441;44.748;37.600;2023-09-07T10:31:37;33.65;23.30
76577;DHT22;65441;44.748;37.600;2023-09-07T10:34:12;33.63;23.04
76577;DHT22;65441;44.748;37.600;2023-09-07T10:36:46;33.47;22.99
76577;DHT22;65441;44.748;37.600;2023-09-07T10:39:21;33.53;23.96
76577;DHT22;65441;44.748;37.600;2023-09-07T10:41:54;33.38;22.71
76577;DHT22;65441;44.748;37.600;2023-09-07T10:44:27;33.51;23.47
76577;DHT22;65441;44.748;37.600;2023-09-07T10:46:59;33.49;23.59
76577;DHT22;65441;44.748;37.600;2023-09-07T10:49:32;33.28;23.74
76577;DHT22;65441;44.748;37.600;2023-09-07T10:52:05;33.11;23.78
76577;DHT22;65441;44.748;37.600;2023-09-07T10:54:39;33.31;23.66
76577;DHT22;65441;44.748;37.600;2023-09-07T10:57:11;33.65;23.09
76577;DHT22;65441;44.748;37.600;2023-09-07T10:59:47;33.78;22.91
76577;DHT22;65441;44.748;37.600;2023-09-07T11:02:23;33.73;23.32
76577;DHT22;65441;44.748;37.600;2023-09-07T11:04:55;33.90;22.55
76577;DHT22;65441;44.748;37.600;2023-09-07T11:07:29;33.74;22.72
76577;DHT22;65441;44.748;37.600;2023-09-07T11:10:00;32.98;23.78
76577;DHT22;65441;44.748;37.600;2023-09-07T11:12:38;32.92;24.49
76577;DHT22;65441;44.748;37.600;2023-09-07T11:15:11;33.18;24.53
76577;DHT22;65441;44.748;37.600;2023-09-07T11:17:44;33.52;24.11
76577;DHT22;65441;44.748;37.600;2023-09-07T11:20:20;33.37;22.48
76577;DHT22;65441;44.748;37.600;2023-09-07T11:22:56;33.65;24.88
76577;DHT22;65441;44.748;37.600;2023-09-07T11:25:33;33.53;23.36
76577;DHT22;65441;44.748;37.600;2023-09-07T11:28:07;33.33;23.62
76577;DHT22;65441;44.748;37.600;2023-09-07T11:30:53;33.25;23.15
76577;DHT22;65441;44.748;37.600;2023-09-07T11:33:26;33.44;24.62
76577;DHT22;65441;44.748;37.600;2023-09-07T11:36:00;33.60;24.24
76577;DHT22;65441;44.748;37.600;2023-09-07T11:38:42;33.61;23.30
76577;DHT22;65441;44.748;37.600;2023-09-07T11:41:14;33.65;22.33
76577;DHT22;65441;44.748;37.600;2023-09-07T11:43:47;33.43;23.05
76577;DHT22;65441;44.748;37.600;2023-09-07T11:46:20;33.28;23.17
76577;DHT22;65441;44.748;37.600;2023-09-07T11:48:54;33.30;22.57
76577;DHT22;65441;44.748;37.600;2023-09-07T11:51:28;32.82;24.38
76577;DHT22;65441;44.748;37.600;2023-09-07T11:54:02;32.67;24.72
76577;DHT22;65441;44.748;37.600;2023-09-07T11:56:33;32.87;25.03
76577;DHT22;65441;44.748;37.600;2023-09-07T11:59:09;32.90;25.19
76577;DHT22;65441;44.748;37.600;2023-09-07T12:01:42;32.81;25.16
76577;DHT22;65441;44.748;37.600;2023-09-07T12:04:14;32.66;26.08
76577;DHT22;65441;44.748;37.600;2023-09-07T12:06:46;32.48;25.38
76577;DHT22;65441;44.748;37.600;2023-09-07T12:09:21;32.59;24.54
76577;DHT22;65441;44.748;37.600;2023-09-07T12:11:53;32.22;25.65
76577;DHT22;65441;44.748;37.600;2023-09-07T12:14:24;31.99;26.20
76577;DHT22;65441;44.748;37.600;2023-09-07T12:16:57;32.34;27.35
76577;DHT22;65441;44.748;37.600;2023-09-07T12:19:32;32.61;26.50
76577;DHT22;65441;44.748;37.600;2023-09-07T12:22:02;32.55;26.83
76577;DHT22;65441;44.748;37.600;2023-09-07T12:24:34;32.40;27.70
76577;DHT22;65441;44.748;37.600;2023-09-07T12:27:07;32.53;27.31
76577;DHT22;65441;44.748;37.600;2023-09-07T12:29:39;32.45;27.87
76577;DHT22;65441;44.748;37.600;2023-09-07T12:32:13;32.40;28.13
76577;DHT22;65441;44.748;37.600;2023-09-07T12:34:46;32.48;28.24
76577;DHT22;65441;44.748;37.600;2023-09-07T12:37:18;32.37;29.23
76577;DHT22;65441;44.748;37.600;2023-09-07T12:39:53;32.28;29.07
76577;DHT22;65441;44.748;37.600;2023-09-07T12:42:24;32.17;29.61
76577;DHT22;65441;44.748;37.600;2023-09-07T12:44:57;32.00;29.93
76577;DHT22;65441;44.748;37.600;2023-09-07T12:47:27;31.82;30.32
76577;DHT22;65441;44.748;37.600;2023-09-07T12:50:00;31.92;30.32
76577;DHT22;65441;44.748;37.600;2023-09-07T12:52:32;31.92;30.35
76577;DHT22;65441;44.748;37.600;2023-09-07T12:55:06;31.51;31.16
76577;DHT22;65441;44.748;37.600;2023-09-07T12:57:40;31.38;31.58
76577;DHT22;65441;44.748;37.600;2023-09-07T13:00:15;31.36;31.64
76577;DHT22;65441;44.748;37.600;2023-09-07T13:02:45;31.25;32.33
76577;DHT22;65441;44.748;37.600;2023-09-07T13:05:19;31.21;32.54
76577;DHT22;65441;44.748;37.600;2023-09-07T13:07:56;31.13;32.42
76577;DHT22;65441;44.748;37.600;2023-09-07T13:10:28;31.07;32.54
76577;DHT22;65441;44.748;37.600;2023-09-07T13:13:00;30.91;32.88
76577;DHT22;65441;44.748;37.600;2023-09-07T13:15:33;30.82;33.29
76577;DHT22;65441;44.748;37.600;2023-09-07T13:18:01;30.84;33.22
76577;DHT22;65441;44.748;37.600;2023-09-07T13:20:32;30.74;34.00
76577;DHT22;65441;44.748;37.600;2023-09-07T13:23:01;30.70;33.83
76577;DHT22;65441;44.748;37.600;2023-09-07T13:25:29;30.62;34.14
76577;DHT22;65441;44.748;37.600;2023-09-07T13:27:58;30.36;34.53
76577;DHT22;65441;44.748;37.600;2023-09-07T13:30:28;30.26;34.63
76577;DHT22;65441;44.748;37.600;2023-09-07T13:32:58;30.10;34.44
76577;DHT22;65441;44.748;37.600;2023-09-07T13:35:28;29.98;34.95
76577;DHT22;65441;44.748;37.600;2023-09-07T13:37:59;29.82;35.15
76577;DHT22;65441;44.748;37.600;2023-09-07T13:40:30;29.79;35.21
76577;DHT22;65441;44.748;37.600;2023-09-07T13:43:01;29.73;35.44
76577;DHT22;65441;44.748;37.600;2023-09-07T13:45:30;29.61;35.17
76577;DHT22;65441;44.748;37.600;2023-09-07T13:47:58;29.54;35.12
76577;DHT22;65441;44.748;37.600;2023-09-07T13:50:27;29.48;35.55
76577;DHT22;65441;44.748;37.600;2023-09-07T13:52:57;29.31;36.30
76577;DHT22;65441;44.748;37.600;2023-09-07T13:55:25;29.22;36.42
76577;DHT22;65441;44.748;37.600;2023-09-07T13:57:53;29.19;36.64
76577;DHT22;65441;44.748;37.600;2023-09-07T14:00:21;29.03;36.81
76577;DHT22;65441;44.748;37.600;2023-09-07T14:02:54;28.87;37.40
76577;DHT22;65441;44.748;37.600;2023-09-07T14:05:23;28.83;37.55
76577;DHT22;65441;44.748;37.600;2023-09-07T14:07:52;28.72;37.77
76577;DHT22;65441;44.748;37.600;2023-09-07T14:10:22;28.59;38.37
76577;DHT22;65441;44.748;37.600;2023-09-07T14:12:50;28.69;38.13
76577;DHT22;65441;44.748;37.600;2023-09-07T14:15:18;28.60;39.07
76577;DHT22;65441;44.748;37.600;2023-09-07T14:17:46;28.67;38.29
76577;DHT22;65441;44.748;37.600;2023-09-07T14:20:15;28.52;38.59
76577;DHT22;65441;44.748;37.600;2023-09-07T14:22:43;28.37;38.84
76577;DHT22;65441;44.748;37.600;2023-09-07T14:25:11;28.19;38.91
76577;DHT22;65441;44.748;37.600;2023-09-07T14:27:41;28.15;39.62
76577;DHT22;65441;44.748;37.600;2023-09-07T14:30:11;28.06;39.68
76577;DHT22;65441;44.748;37.600;2023-09-07T14:32:42;27.94;39.72
76577;DHT22;65441;44.748;37.600;2023-09-07T14:35:15;28.02;39.66
76577;DHT22;65441;44.748;37.600;2023-09-07T14:37:48;27.94;39.71
76577;DHT22;65441;44.748;37.600;2023-09-07T14:40:19;27.81;39.59
76577;DHT22;65441;44.748;37.600;2023-09-07T14:42:50;27.70;38.75
76577;DHT22;65441;44.748;37.600;2023-09-07T14:45:20;27.53;38.24
76577;DHT22;65441;44.748;37.600;2023-09-07T14:47:48;27.40;38.44
76577;DHT22;65441;44.748;37.600;2023-09-07T14:50:16;27.38;38.43
76577;DHT22;65441;44.748;37.600;2023-09-07T14:52:44;27.26;38.92
76577;DHT22;65441;44.748;37.600;2023-09-07T14:55:14;27.30;38.66
76577;DHT22;65441;44.748;37.600;2023-09-07T14:57:42;27.15;39.88
76577;DHT22;65441;44.748;37.600;2023-09-07T15:00:12;26.98;40.77
76577;DHT22;65441;44.748;37.600;2023-09-07T15:02:40;26.95;41.07
76577;DHT22;65441;44.748;37.600;2023-09-07T15:05:09;26.76;41.99
76577;DHT22;65441;44.748;37.600;2023-09-07T15:07:37;26.66;42.68
76577;DHT22;65441;44.748;37.600;2023-09-07T15:10:06;26.50;43.19
76577;DHT22;65441;44.748;37.600;2023-09-07T15:12:34;26.48;43.16
76577;DHT22;65441;44.748;37.600;2023-09-07T15:15:02;26.38;44.40
76577;DHT22;65441;44.748;37.600;2023-09-07T15:17:38;26.35;45.12
76577;DHT22;65441;44.748;37.600;2023-09-07T15:20:07;26.27;44.99
76577;DHT22;65441;44.748;37.600;2023-09-07T15:22:36;26.26;47.05
76577;DHT22;65441;44.748;37.600;2023-09-07T15:25:04;26.22;46.47
76577;DHT22;65441;44.748;37.600;2023-09-07T15:27:33;26.13;45.37
76577;DHT22;65441;44.748;37.600;2023-09-07T15:30:01;26.03;45.86
76577;DHT22;65441;44.748;37.600;2023-09-07T15:32:30;25.94;45.91
76577;DHT22;65441;44.748;37.600;2023-09-07T15:34:59;25.86;47.22
76577;DHT22;65441;44.748;37.600;2023-09-07T15:37:27;25.83;47.81